Time;durP1;ratioP1;P1;durP2;ratioP2;P2;SDS_P1;SDS_P2;PMS_P1;PMS_P2;Temp;Humidity;BMP_temperature;BMP_pressure;BME280_temperature;BME280_humidity;BME280_pressure;Samples;Min_cycle;Max_cycle;Signal;HPM_P1;HPM_P2
2023/12/26 00:01:32;;;;;;;2.20;0.80;;;;;;;3.99;89.99;98390.72;5065618;28;20477;-65
2023/12/26 00:03:57;;;;;;;0.60;0.60;;;;;;;3.93;89.87;98377.97;5048002;28;20358;-65
2023/12/26 00:06:23;;;;;;;1.85;1.45;;;;;;;3.99;90.48;98371.88;5065493;28;20032;-66
2023/12/26 00:08:49;;;;;;;1.00;0.90;;;;;;;3.94;90.64;98365.13;5065773;28;20017;-66
2023/12/26 00:11:15;;;;;;;1.08;0.65;;;;;;;3.98;90.53;98389.00;5065531;28;20021;-66
2023/12/26 00:13:40;;;;;;;1.55;1.05;;;;;;;3.97;90.39;98367.63;5065557;28;20039;-65
2023/12/26 00:16:06;;;;;;;7.00;1.98;;;;;;;3.95;90.15;98360.81;5065615;28;20033;-66
2023/12/26 00:18:32;;;;;;;1.20;1.15;;;;;;;3.99;90.37;98351.34;5065405;28;20025;-66
2023/12/26 00:20:57;;;;;;;0.50;0.50;;;;;;;4.04;90.65;98352.97;5065605;28;20039;-66
2023/12/26 00:23:23;;;;;;;1.05;1.05;;;;;;;4.07;90.80;98370.06;5065325;28;20032;-66
2023/12/26 00:25:48;;;;;;;8.85;1.40;;;;;;;4.03;90.56;98371.81;5065401;28;20049;-65
2023/12/26 00:28:16;;;;;;;0.73;0.70;;;;;;;4.06;90.53;98374.34;5065405;28;20024;-65
2023/12/26 00:30:41;;;;;;;3.45;1.67;;;;;;;4.07;90.34;98359.78;5046900;28;20053;-65
2023/12/26 00:33:06;;;;;;;0.70;0.60;;;;;;;4.11;90.69;98356.28;5065364;28;20078;-65
2023/12/26 00:35:32;;;;;;;9.57;3.35;;;;;;;4.08;90.45;98358.91;5065191;28;20496;-66
2023/12/26 00:38:01;;;;;;;9.25;1.80;;;;;;;4.03;89.98;98350.41;5065130;28;20032;-64
2023/12/26 00:40:27;;;;;;;5.00;2.13;;;;;;;3.99;90.21;98341.94;5047352;28;20400;-65
2023/12/26 00:42:52;;;;;;;3.22;1.67;;;;;;;3.96;90.08;98331.72;5064602;28;20040;-65
2023/12/26 00:45:18;;;;;;;6.22;1.67;;;;;;;3.92;90.12;98332.59;5064883;28;20299;-64
2023/12/26 00:47:43;;;;;;;4.25;1.05;;;;;;;3.90;89.93;98334.38;5065075;28;20025;-64
2023/12/26 00:50:11;;;;;;;0.82;0.82;;;;;;;3.84;89.87;98325.03;5064994;28;20025;-65
2023/12/26 00:52:38;;;;;;;3.00;2.03;;;;;;;3.76;90.55;98306.31;5065091;28;20020;-65
2023/12/26 00:55:08;;;;;;;6.57;1.95;;;;;;;3.77;89.91;98308.84;5046981;28;20055;-66
2023/12/26 00:57:34;;;;;;;0.88;0.88;;;;;;;3.67;89.35;98297.03;5065159;28;20029;-64
2023/12/26 00:59:59;;;;;;;1.75;1.60;;;;;;;3.62;89.34;98299.69;5046971;28;20021;-65
2023/12/26 01:02:25;;;;;;;0.50;0.50;;;;;;;3.51;89.37;98293.84;5064804;28;20021;-66
2023/12/26 01:04:51;;;;;;;0.45;0.45;;;;;;;3.45;88.78;98303.31;5064804;28;20049;-66
2023/12/26 01:07:16;;;;;;;0.60;0.60;;;;;;;3.44;88.43;98305.91;5046885;28;20029;-66
2023/12/26 01:09:42;;;;;;;0.40;0.40;;;;;;;3.34;88.68;98300.88;5064907;28;20035;-66
2023/12/26 01:12:07;;;;;;;5.30;1.60;;;;;;;3.37;88.63;98305.13;5064774;28;20092;-65
2023/12/26 01:14:33;;;;;;;0.70;0.70;;;;;;;3.29;88.76;98297.53;5046711;28;20021;-65
2023/12/26 01:16:58;;;;;;;0.50;0.50;;;;;;;3.24;88.36;98298.47;5046813;28;20029;-64
2023/12/26 01:19:23;;;;;;;15.00;1.05;;;;;;;3.16;88.75;98289.16;5064747;28;20436;-66
2023/12/26 01:21:49;;;;;;;0.40;0.40;;;;;;;3.17;88.82;98295.97;5064916;28;20021;-66
2023/12/26 01:24:14;;;;;;;4.03;0.93;;;;;;;3.21;88.67;98300.19;5064797;28;20021;-65
2023/12/26 01:26:40;;;;;;;11.38;0.95;;;;;;;3.19;89.40;98285.72;5064722;28;20029;-66
2023/12/26 01:29:07;;;;;;;2.13;0.77;;;;;;;3.19;89.19;98291.69;5064333;28;20045;-65
2023/12/26 01:31:35;;;;;;;0.40;0.40;;;;;;;3.21;89.80;98295.06;5046763;28;20076;-66
2023/12/26 01:34:02;;;;;;;0.40;0.40;;;;;;;3.16;89.86;98301.13;5064471;28;20092;-64
2023/12/26 01:36:27;;;;;;;0.40;0.40;;;;;;;3.18;89.66;98301.97;5046576;28;20024;-65
2023/12/26 01:38:52;;;;;;;0.50;0.50;;;;;;;3.19;89.90;98303.66;5064794;28;20029;-65
2023/12/26 01:41:18;;;;;;;17.27;1.27;;;;;;;3.18;89.95;98282.28;5064562;28;20180;-65
2023/12/26 01:43:43;;;;;;;0.52;0.52;;;;;;;3.22;90.29;98275.41;5064452;28;20024;-65
2023/12/26 01:46:10;;;;;;;1.00;1.00;;;;;;;3.25;90.61;98271.94;5064025;28;20025;-65
2023/12/26 01:48:36;;;;;;;2.35;1.55;;;;;;;3.23;90.50;98266.84;5064680;28;20100;-65
2023/12/26 01:51:02;;;;;;;1.05;1.05;;;;;;;3.22;90.36;98266.00;5064279;28;20029;-65
2023/12/26 01:53:27;;;;;;;0.40;0.40;;;;;;;3.25;90.27;98261.69;5065827;28;20025;-66
2023/12/26 01:55:53;;;;;;;0.40;0.40;;;;;;;3.22;90.38;98255.75;5068116;28;20158;-65
2023/12/26 01:58:19;;;;;;;0.60;0.60;;;;;;;3.30;90.58;98257.34;5067895;28;20128;-65
2023/12/26 02:00:45;;;;;;;1.15;1.05;;;;;;;3.31;90.61;98259.03;5067610;28;20017;-65
2023/12/26 02:03:10;;;;;;;1.10;0.60;;;;;;;3.36;90.75;98244.44;5068167;28;20019;-65
2023/12/26 02:05:37;;;;;;;0.60;0.60;;;;;;;3.40;91.10;98233.28;5049715;28;20025;-65
2023/12/26 02:08:02;;;;;;;20.55;1.35;;;;;;;3.34;91.13;98233.34;5067770;28;20025;-66
2023/12/26 02:10:28;;;;;;;3.53;1.05;;;;;;;3.36;91.28;98226.47;5067854;28;20024;-65
2023/12/26 02:12:53;;;;;;;0.50;0.50;;;;;;;3.31;90.88;98223.13;5067691;28;20055;-65
2023/12/26 02:15:19;;;;;;;1.70;1.60;;;;;;;3.29;90.68;98215.47;5067643;28;20021;-65
2023/12/26 02:17:45;;;;;;;0.90;0.55;;;;;;;3.31;90.80;98223.13;5049620;28;20028;-65
2023/12/26 02:20:11;;;;;;;0.65;0.60;;;;;;;3.28;90.68;98218.91;5067748;28;20021;-65
2023/12/26 02:22:38;;;;;;;0.47;0.47;;;;;;;3.32;90.97;98225.66;5067597;28;20078;-65
2023/12/26 02:25:07;;;;;;;1.02;1.00;;;;;;;3.31;90.88;98230.81;5067436;28;20462;-66
2023/12/26 02:27:36;;;;;;;6.07;0.98;;;;;;;3.33;90.87;98211.13;5049485;28;20040;-66
2023/12/26 02:30:02;;;;;;;0.50;0.50;;;;;;;3.42;90.90;98225.56;5067296;28;20048;-65
2023/12/26 02:32:30;;;;;;;19.25;2.53;;;;;;;3.36;91.13;98211.09;5067365;28;20028;-65
2023/12/26 02:35:00;;;;;;;2.42;1.25;;;;;;;3.46;91.37;98211.81;5067768;28;20020;-64
2023/12/26 02:37:26;;;;;;;2.15;1.35;;;;;;;3.48;91.59;98215.22;5067279;28;20078;-65
2023/12/26 02:39:52;;;;;;;1.30;0.88;;;;;;;3.39;91.75;98187.97;5066931;28;20051;-65
2023/12/26 02:42:18;;;;;;;1.40;0.73;;;;;;;3.49;91.36;98201.50;5067339;28;20487;-65
2023/12/26 02:44:43;;;;;;;1.15;0.75;;;;;;;3.47;91.51;98186.13;5067218;28;20267;-65
2023/12/26 02:47:09;;;;;;;4.93;0.75;;;;;;;3.50;91.50;98192.09;5049149;28;20096;-65
2023/12/26 02:49:34;;;;;;;1.70;1.60;;;;;;;3.49;90.95;98186.09;5049332;28;20072;-65
2023/12/26 02:52:00;;;;;;;1.98;0.52;;;;;;;3.53;91.23;98197.19;5067038;28;20027;-65
2023/12/26 02:54:25;;;;;;;0.60;0.60;;;;;;;3.43;91.17;98175.94;5067053;28;20073;-64
2023/12/26 02:56:51;;;;;;;0.60;0.60;;;;;;;3.52;91.71;98186.06;5067043;28;20075;-64
2023/12/26 02:59:16;;;;;;;1.40;0.73;;;;;;;3.52;91.18;98180.06;5048814;28;20135;-64
2023/12/26 03:01:44;;;;;;;11.40;1.75;;;;;;;3.52;91.29;98182.63;5066719;28;20020;-64
2023/12/26 03:04:10;;;;;;;0.50;0.50;;;;;;;3.52;91.64;98180.94;5066645;28;20021;-64
2023/12/26 03:06:35;;;;;;;2.45;1.45;;;;;;;3.49;91.02;98180.13;5066278;28;20028;-63
2023/12/26 03:09:01;;;;;;;0.70;0.70;;;;;;;3.44;90.85;98181.06;5066870;28;20393;-63
2023/12/26 03:11:27;;;;;;;0.50;0.50;;;;;;;3.41;90.97;98167.41;5067029;28;20545;-63
2023/12/26 03:13:52;;;;;;;1.35;1.25;;;;;;;3.41;91.17;98175.97;5066574;28;20036;-63
2023/12/26 03:16:20;;;;;;;0.60;0.60;;;;;;;3.36;90.78;98175.19;5066562;28;20044;-63
2023/12/26 03:18:45;;;;;;;0.52;0.52;;;;;;;3.37;90.89;98163.22;5066740;28;20031;-64
2023/12/26 03:21:11;;;;;;;0.57;0.57;;;;;;;3.39;91.26;98170.00;5066632;28;20107;-63
2023/12/26 03:23:36;;;;;;;11.32;2.92;;;;;;;3.33;91.41;98159.84;5066457;28;20025;-63
2023/12/26 03:26:02;;;;;;;2.50;1.20;;;;;;;3.35;91.45;98178.63;5066560;28;20021;-64
2023/12/26 03:28:28;;;;;;;0.43;0.43;;;;;;;3.37;91.52;98170.91;5066407;28;20020;-64
2023/12/26 03:30:54;;;;;;;0.70;0.70;;;;;;;3.33;91.71;98159.84;5066094;28;20520;-64
2023/12/26 03:33:20;;;;;;;3.58;1.27;;;;;;;3.39;91.60;98159.75;5066468;28;20036;-64
2023/12/26 03:35:45;;;;;;;1.85;1.27;;;;;;;3.36;92.25;98162.34;5066232;28;20044;-64
2023/12/26 03:38:11;;;;;;;0.60;0.60;;;;;;;3.33;91.81;98162.41;5066286;28;20021;-64
2023/12/26 03:40:36;;;;;;;1.05;0.65;;;;;;;3.31;91.84;98156.44;5066204;28;20029;-63
2023/12/26 03:43:01;;;;;;;2.05;1.13;;;;;;;3.18;92.06;98141.25;5066150;28;20028;-63
2023/12/26 03:45:28;;;;;;;2.83;1.30;;;;;;;3.31;92.26;98156.44;5048120;28;20032;-64
2023/12/26 03:47:54;;;;;;;0.88;0.88;;;;;;;3.36;92.02;98159.78;5065990;28;20071;-63
2023/12/26 03:50:20;;;;;;;0.40;0.40;;;;;;;3.39;91.97;98157.19;5048266;28;20060;-64
2023/12/26 03:52:46;;;;;;;0.50;0.50;;;;;;;3.37;91.92;98158.09;5066063;28;20017;-64
2023/12/26 03:55:13;;;;;;;0.40;0.40;;;;;;;3.36;92.29;98157.22;5065876;28;20086;-64
2023/12/26 03:57:39;;;;;;;2.17;0.85;;;;;;;3.37;92.08;98156.34;5048084;28;20029;-63
2023/12/26 04:00:05;;;;;;;0.40;0.40;;;;;;;3.32;92.58;98150.47;5047689;28;20021;-64
2023/12/26 04:02:31;;;;;;;1.17;0.65;;;;;;;3.27;92.21;98147.97;5065620;28;20046;-65
2023/12/26 04:04:56;;;;;;;0.70;0.70;;;;;;;3.24;92.47;98142.03;5065938;28;20024;-65
2023/12/26 04:07:22;;;;;;;1.05;1.05;;;;;;;3.20;92.63;98136.09;5048005;28;20027;-64
2023/12/26 04:09:47;;;;;;;0.52;0.52;;;;;;;3.20;92.47;98142.09;5065696;28;20032;-66
2023/12/26 04:12:13;;;;;;;0.80;0.80;;;;;;;3.19;92.60;98145.53;5065804;28;20052;-66
2023/12/26 04:14:38;;;;;;;1.52;0.70;;;;;;;3.19;92.89;98137.84;5065747;28;20040;-66
2023/12/26 04:17:03;;;;;;;0.40;0.40;;;;;;;3.19;93.27;98137.84;5065295;28;20028;-66
2023/12/26 04:19:29;;;;;;;0.40;0.40;;;;;;;3.15;92.94;98128.47;5065604;28;20021;-65
2023/12/26 04:21:54;;;;;;;0.40;0.40;;;;;;;3.20;93.12;98130.97;5065527;28;20024;-65
2023/12/26 04:24:20;;;;;;;0.63;0.63;;;;;;;3.14;93.07;98133.63;5047391;28;20033;-65
2023/12/26 04:26:45;;;;;;;4.30;1.38;;;;;;;3.08;93.14;98119.19;5065645;28;20080;-65
2023/12/26 04:29:10;;;;;;;0.43;0.43;;;;;;;3.18;93.22;98125.88;5065301;28;20057;-65
2023/12/26 04:31:36;;;;;;;0.55;0.55;;;;;;;3.10;93.43;98125.97;5065230;28;20461;-65
2023/12/26 04:34:01;;;;;;;1.02;1.02;;;;;;;3.04;93.27;98120.94;5065246;28;20013;-65
2023/12/26 04:36:27;;;;;;;0.40;0.40;;;;;;;3.01;93.29;98117.56;5065341;28;20025;-66
2023/12/26 04:38:52;;;;;;;1.33;1.23;;;;;;;2.99;93.56;98124.47;5065332;28;20025;-65
2023/12/26 04:41:17;;;;;;;1.13;1.00;;;;;;;3.00;93.62;98128.72;5065337;28;20029;-65
2023/12/26 04:43:43;;;;;;;7.97;1.67;;;;;;;2.97;93.45;98127.88;5065192;28;20091;-66
2023/12/26 04:46:16;;;;;;;0.85;0.85;;;;;;;2.96;93.72;98121.06;5065190;28;20021;-65
2023/12/26 04:48:41;;;;;;;1.05;0.60;;;;;;;2.96;93.79;98127.91;5065084;28;20047;-66
2023/12/26 04:51:07;;;;;;;0.40;0.40;;;;;;;2.90;93.53;98130.53;5065220;28;20024;-66
2023/12/26 04:53:32;;;;;;;0.57;0.55;;;;;;;2.90;93.75;98122.84;5047159;28;20024;-66
2023/12/26 04:55:57;;;;;;;0.50;0.50;;;;;;;2.92;93.89;98129.69;5065029;28;20025;-65
2023/12/26 04:58:23;;;;;;;0.80;0.80;;;;;;;2.90;94.11;98126.28;5065042;28;20387;-65
2023/12/26 05:00:48;;;;;;;1.35;1.15;;;;;;;2.85;94.11;98128.91;5064796;28;20021;-65
2023/12/26 05:03:14;;;;;;;0.43;0.43;;;;;;;2.88;94.10;98125.44;5064801;28;20052;-66
2023/12/26 05:05:39;;;;;;;0.50;0.50;;;;;;;2.87;94.10;98134.00;5065213;28;20040;-65
2023/12/26 05:08:04;;;;;;;0.70;0.70;;;;;;;2.88;94.29;98134.84;5046812;28;20035;-66
2023/12/26 05:10:33;;;;;;;0.40;0.40;;;;;;;2.83;94.53;98134.91;5064969;28;20032;-65
2023/12/26 05:12:58;;;;;;;0.60;0.60;;;;;;;2.83;94.33;98125.50;5065122;28;20048;-65
2023/12/26 05:15:24;;;;;;;1.88;0.45;;;;;;;2.80;94.45;98119.56;5046908;28;20021;-64
2023/12/26 05:17:49;;;;;;;0.40;0.40;;;;;;;2.77;94.49;98114.50;5064817;28;20017;-65
2023/12/26 05:20:15;;;;;;;0.50;0.50;;;;;;;2.80;94.72;98117.00;5064884;28;20032;-64
2023/12/26 05:22:41;;;;;;;0.43;0.43;;;;;;;2.72;94.37;98127.38;5064759;28;20152;-64
2023/12/26 05:25:10;;;;;;;0.50;0.50;;;;;;;2.68;94.44;98120.59;5064884;28;20035;-64
2023/12/26 05:27:36;;;;;;;1.45;1.35;;;;;;;2.72;94.58;98124.81;5064775;28;20025;-64
2023/12/26 05:30:01;;;;;;;0.47;0.47;;;;;;;2.73;94.68;98131.66;5068530;28;20124;-63
2023/12/26 05:32:26;;;;;;;0.82;0.82;;;;;;;2.72;94.74;98132.50;5068424;28;20048;-64
2023/12/26 05:34:55;;;;;;;0.50;0.50;;;;;;;2.69;94.58;98123.13;5068742;28;20025;-64
2023/12/26 05:37:21;;;;;;;0.50;0.50;;;;;;;2.45;94.77;98093.56;5050610;28;20025;-64
2023/12/26 05:39:46;;;;;;;0.50;0.50;;;;;;;2.80;94.65;98132.38;5068762;28;20057;-64
2023/12/26 05:42:11;;;;;;;2.25;1.83;;;;;;;2.70;94.99;98129.94;5068332;28;20036;-64
2023/12/26 05:44:37;;;;;;;0.40;0.40;;;;;;;2.71;94.72;98130.81;5068448;28;20048;-64
2023/12/26 05:47:04;;;;;;;0.40;0.40;;;;;;;2.67;94.71;98132.56;5068311;28;20092;-63
2023/12/26 05:49:30;;;;;;;0.43;0.43;;;;;;;2.78;94.74;98129.00;5050362;28;20193;-63
2023/12/26 05:51:55;;;;;;;0.50;0.50;;;;;;;2.82;94.99;98136.63;5068531;28;20073;-63
2023/12/26 05:54:20;;;;;;;0.40;0.40;;;;;;;2.83;95.06;98137.47;5068309;28;20047;-63
2023/12/26 05:56:46;;;;;;;4.32;1.73;;;;;;;2.83;95.48;98134.91;5068325;28;20032;-63
2023/12/26 05:59:11;;;;;;;0.40;0.40;;;;;;;2.88;95.59;98148.50;5068126;28;20017;-63
2023/12/26 06:01:37;;;;;;;0.60;0.60;;;;;;;2.90;95.59;98140.81;5068095;28;20021;-65
2023/12/26 06:04:02;;;;;;;2.60;0.98;;;;;;;2.86;95.63;98132.28;5067950;28;20025;-62
2023/12/26 06:06:28;;;;;;;0.50;0.50;;;;;;;2.91;95.74;98147.59;5068010;28;20029;-63
2023/12/26 06:08:53;;;;;;;0.50;0.50;;;;;;;2.87;95.83;98146.81;5068056;28;20020;-63
2023/12/26 06:11:19;;;;;;;0.50;0.50;;;;;;;2.84;95.67;98146.88;5068029;28;20032;-63
2023/12/26 06:13:44;;;;;;;0.75;0.63;;;;;;;2.77;95.31;98151.22;5068044;28;20025;-64
2023/12/26 06:16:10;;;;;;;0.50;0.50;;;;;;;2.77;94.87;98160.63;5067533;28;20043;-64
2023/12/26 06:18:35;;;;;;;0.45;0.45;;;;;;;2.68;94.85;98153.91;5050047;28;20025;-64
2023/12/26 06:21:00;;;;;;;0.40;0.40;;;;;;;2.72;94.84;98164.09;5067918;28;20104;-63
2023/12/26 06:23:26;;;;;;;0.57;0.57;;;;;;;2.77;95.21;98170.88;5067733;28;20480;-64
2023/12/26 06:25:56;;;;;;;0.60;0.60;;;;;;;2.71;95.26;98176.94;5067724;28;20508;-64
2023/12/26 06:28:21;;;;;;;0.50;0.50;;;;;;;2.64;95.18;98173.59;5067761;28;20017;-63
2023/12/26 06:30:46;;;;;;;0.50;0.50;;;;;;;2.69;95.38;98173.53;5067357;28;20619;-63
2023/12/26 06:33:12;;;;;;;0.63;0.57;;;;;;;2.66;95.53;98179.53;5049488;28;20023;-63
2023/12/26 06:35:38;;;;;;;0.50;0.50;;;;;;;2.58;95.37;98186.47;5067215;28;20154;-63
2023/12/26 06:38:11;;;;;;;0.50;0.50;;;;;;;2.64;95.37;98193.22;5067733;28;20021;-63
2023/12/26 06:40:37;;;;;;;0.40;0.40;;;;;;;2.56;95.58;98189.06;5066323;28;20029;-63
2023/12/26 06:43:03;;;;;;;0.50;0.50;;;;;;;2.60;95.65;98193.25;5067151;28;20024;-63
2023/12/26 06:45:28;;;;;;;3.42;2.17;;;;;;;2.70;96.08;98206.00;5067385;28;20033;-63
2023/12/26 06:47:54;;;;;;;0.80;0.55;;;;;;;2.64;96.12;98194.09;5067153;28;20044;-63
2023/12/26 06:50:19;;;;;;;0.80;0.80;;;;;;;2.65;96.21;98192.38;5049103;28;20116;-63
2023/12/26 06:52:44;;;;;;;0.40;0.40;;;;;;;2.79;96.39;98212.69;5067436;28;20096;-63
2023/12/26 06:55:10;;;;;;;0.63;0.63;;;;;;;2.70;96.72;98213.69;5067069;28;20461;-63
2023/12/26 06:57:35;;;;;;;0.60;0.60;;;;;;;2.68;96.09;98212.84;5067282;28;20053;-63
2023/12/26 07:00:01;;;;;;;0.65;0.55;;;;;;;2.62;95.92;98203.50;5067128;28;20029;-63
2023/12/26 07:02:26;;;;;;;2.55;2.35;;;;;;;2.70;96.02;98223.94;5066504;28;20031;-63
2023/12/26 07:04:51;;;;;;;0.60;0.60;;;;;;;2.80;96.26;98234.88;5066844;28;20025;-64
2023/12/26 07:07:17;;;;;;;0.50;0.50;;;;;;;2.78;96.51;98228.97;5066650;28;20021;-64
2023/12/26 07:09:42;;;;;;;1.45;0.95;;;;;;;2.70;96.28;98232.44;5066593;28;20024;-64
2023/12/26 07:12:08;;;;;;;0.98;0.95;;;;;;;2.81;96.28;98237.44;5066884;28;20031;-63
2023/12/26 07:14:33;;;;;;;0.50;0.50;;;;;;;2.75;96.70;98249.50;5066752;28;20028;-64
2023/12/26 07:16:59;;;;;;;0.50;0.50;;;;;;;2.77;96.48;98247.75;5066424;28;20025;-63
2023/12/26 07:19:24;;;;;;;0.50;0.50;;;;;;;2.84;96.44;98259.63;5066835;28;20400;-63
2023/12/26 07:21:51;;;;;;;0.60;0.60;;;;;;;2.84;96.53;98254.50;5066519;28;20093;-63
2023/12/26 07:24:16;;;;;;;0.55;0.55;;;;;;;2.80;97.24;98257.94;5066455;28;20104;-63
2023/12/26 07:26:41;;;;;;;0.63;0.60;;;;;;;2.82;96.80;98266.47;5066433;28;20025;-63
2023/12/26 07:29:07;;;;;;;0.65;0.50;;;;;;;2.80;96.59;98268.22;5066331;28;20044;-64
2023/12/26 07:31:32;;;;;;;0.50;0.50;;;;;;;2.84;96.65;98275.00;5066206;28;20165;-64
2023/12/26 07:34:00;;;;;;;0.82;0.70;;;;;;;2.81;96.98;98270.75;5048443;28;20017;-63
2023/12/26 07:36:26;;;;;;;0.70;0.70;;;;;;;2.78;96.56;98281.03;5066305;28;20025;-63
2023/12/26 07:38:51;;;;;;;0.52;0.52;;;;;;;2.81;96.99;98280.16;5066329;28;20043;-63
2023/12/26 07:41:16;;;;;;;0.93;0.88;;;;;;;2.77;96.83;98281.91;5066268;28;20036;-63
2023/12/26 07:43:42;;;;;;;0.40;0.40;;;;;;;2.87;97.13;98294.63;5065934;28;20021;-63
2023/12/26 07:46:07;;;;;;;0.52;0.52;;;;;;;2.85;96.88;98299.75;5066283;28;20024;-64
2023/12/26 07:48:32;;;;;;;0.47;0.47;;;;;;;2.95;97.08;98309.06;5065851;28;20025;-63
2023/12/26 07:50:58;;;;;;;0.50;0.50;;;;;;;2.89;96.90;98314.22;5065611;28;20029;-63
2023/12/26 07:53:24;;;;;;;0.50;0.50;;;;;;;2.96;97.02;98315.88;5066005;28;20025;-64
2023/12/26 07:55:49;;;;;;;0.60;0.60;;;;;;;2.94;97.08;98311.66;5065797;28;20047;-64
2023/12/26 07:58:14;;;;;;;15.45;1.05;;;;;;;2.95;97.34;98328.72;5065828;28;20025;-64
2023/12/26 08:00:40;;;;;;;1.23;1.13;;;;;;;2.92;97.55;98332.16;5047747;28;20021;-63
2023/12/26 08:03:05;;;;;;;0.80;0.80;;;;;;;3.00;97.57;98336.34;5065668;28;20501;-64
2023/12/26 08:05:31;;;;;;;0.50;0.50;;;;;;;3.07;97.51;98343.09;5065691;28;20017;-63
2023/12/26 08:07:56;;;;;;;0.98;0.68;;;;;;;3.02;97.90;98330.31;5065769;28;20049;-63
2023/12/26 08:10:25;;;;;;;0.80;0.80;;;;;;;3.16;97.94;98353.28;5065338;28;20021;-63
2023/12/26 08:12:51;;;;;;;3.33;1.45;;;;;;;3.07;98.08;98335.41;5065643;28;20033;-63
2023/12/26 08:15:16;;;;;;;0.50;0.50;;;;;;;3.18;97.94;98361.78;5065469;28;20107;-63
2023/12/26 08:17:41;;;;;;;0.85;0.85;;;;;;;3.14;97.47;98356.69;5065449;28;20024;-63
2023/12/26 08:20:08;;;;;;;0.90;0.77;;;;;;;3.07;97.20;98358.47;5047570;28;20385;-63
2023/12/26 08:22:33;;;;;;;4.63;1.38;;;;;;;2.93;96.93;98362.06;5047488;28;20032;-63
2023/12/26 08:24:58;;;;;;;5.28;1.80;;;;;;;2.87;96.57;98369.81;5065519;28;20025;-64
2023/12/26 08:27:24;;;;;;;0.50;0.50;;;;;;;2.78;96.63;98372.47;5065441;28;20120;-64
2023/12/26 08:29:49;;;;;;;0.80;0.80;;;;;;;2.75;96.50;98373.31;5065236;28;20099;-64
2023/12/26 08:32:15;;;;;;;0.55;0.55;;;;;;;2.64;96.42;98376.00;5047337;28;20025;-65
2023/12/26 08:34:44;;;;;;;0.40;0.40;;;;;;;2.65;96.49;98387.09;5065401;28;20025;-65
2023/12/26 08:37:10;;;;;;;0.40;0.40;;;;;;;2.63;96.72;98383.69;5065213;28;20033;-64
2023/12/26 08:39:36;;;;;;;0.50;0.50;;;;;;;2.62;96.78;98392.25;5065446;28;20032;-64
2023/12/26 08:42:02;;;;;;;0.40;0.40;;;;;;;2.60;96.77;98392.25;5065122;28;20024;-64
2023/12/26 08:44:27;;;;;;;2.08;1.45;;;;;;;2.47;96.38;98377.00;5064848;28;20082;-64
2023/12/26 08:46:53;;;;;;;0.70;0.70;;;;;;;2.53;96.57;98390.59;5064984;28;20035;-64
2023/12/26 08:49:18;;;;;;;0.50;0.50;;;;;;;2.40;96.73;98388.13;5065200;28;20024;-63
2023/12/26 08:51:43;;;;;;;0.70;0.70;;;;;;;2.48;96.61;98406.00;5047282;28;20048;-63
2023/12/26 08:54:11;;;;;;;1.55;0.80;;;;;;;2.45;96.58;98404.31;5065110;28;20046;-63
2023/12/26 08:56:39;;;;;;;0.40;0.40;;;;;;;2.51;96.63;98418.78;5064978;28;20044;-64
2023/12/26 08:59:04;;;;;;;0.47;0.47;;;;;;;2.63;97.54;98410.16;5064638;28;20427;-63
2023/12/26 09:01:30;;;;;;;0.90;0.82;;;;;;;2.78;97.93;98408.34;5064749;28;20089;-63
2023/12/26 09:03:55;;;;;;;0.60;0.60;;;;;;;3.05;98.59;98414.06;5064361;28;20029;-63
2023/12/26 09:06:21;;;;;;;0.40;0.40;;;;;;;3.35;98.40;98417.16;5064725;28;20476;-63
2023/12/26 09:08:46;;;;;;;0.50;0.50;;;;;;;3.87;99.34;98421.66;5064846;28;20123;-64
2023/12/26 09:11:12;;;;;;;0.40;0.40;;;;;;;4.33;99.35;98436.44;5046903;28;20685;-63
2023/12/26 09:13:37;;;;;;;0.50;0.50;;;;;;;4.56;97.94;98421.56;5047240;28;20074;-65
2023/12/26 09:16:03;;;;;;;1.58;0.93;;;;;;;4.87;96.49;98444.22;5064815;28;20024;-65
2023/12/26 09:18:29;;;;;;;1.15;0.98;;;;;;;5.10;95.39;98448.09;5065017;28;20033;-64
2023/12/26 09:20:54;;;;;;;1.75;0.93;;;;;;;5.31;93.57;98452.00;5065012;28;20102;-65
2023/12/26 09:23:20;;;;;;;6.43;2.35;;;;;;;5.19;92.04;98452.22;5064477;28;20558;-65
2023/12/26 09:25:45;;;;;;;10.90;1.77;;;;;;;4.93;90.30;98458.66;5065025;28;20489;-64
2023/12/26 09:28:10;;;;;;;0.57;0.57;;;;;;;4.69;91.02;98461.63;5046646;28;20033;-65
2023/12/26 09:30:36;;;;;;;3.25;1.23;;;;;;;4.51;91.57;98459.31;5064469;28;20485;-65
2023/12/26 09:33:02;;;;;;;0.80;0.70;;;;;;;4.43;91.45;98474.84;5046888;28;20062;-65
2023/12/26 09:35:29;;;;;;;0.65;0.65;;;;;;;4.29;92.31;98475.91;5064889;28;20081;-65
2023/12/26 09:37:54;;;;;;;0.63;0.63;;;;;;;4.21;91.48;98463.19;5064548;28;20025;-65
2023/12/26 09:40:19;;;;;;;0.45;0.45;;;;;;;4.18;92.00;98486.34;5064752;28;20055;-65
2023/12/26 09:42:45;;;;;;;7.97;0.63;;;;;;;4.16;92.29;98484.63;5064502;28;20031;-65
2023/12/26 09:45:11;;;;;;;2.70;0.73;;;;;;;4.13;92.05;98488.13;5064633;28;20047;-65
2023/12/26 09:47:43;;;;;;;0.52;0.52;;;;;;;4.16;91.84;98498.34;5064504;28;20113;-64
2023/12/26 09:50:10;;;;;;;0.63;0.63;;;;;;;4.22;92.37;98487.13;5046591;28;20025;-64
2023/12/26 09:52:35;;;;;;;0.40;0.40;;;;;;;4.33;91.51;98497.25;5064372;28;20017;-66
2023/12/26 09:55:02;;;;;;;0.40;0.40;;;;;;;4.44;91.18;98497.13;5064558;28;20032;-65
2023/12/26 09:57:28;;;;;;;0.50;0.50;;;;;;;4.40;90.42;98488.59;5064538;28;20021;-65
2023/12/26 09:59:55;;;;;;;0.50;0.50;;;;;;;4.55;90.29;98504.69;5064257;28;20025;-64
2023/12/26 10:02:21;;;;;;;0.80;0.80;;;;;;;4.58;90.88;98497.75;5064095;28;20024;-65
2023/12/26 10:04:46;;;;;;;4.53;1.23;;;;;;;4.94;90.82;98510.06;5046253;28;20028;-65
2023/12/26 10:07:14;;;;;;;14.57;0.80;;;;;;;4.79;89.82;98515.47;5046250;28;20074;-65
2023/12/26 10:09:40;;;;;;;0.40;0.40;;;;;;;4.68;89.98;98519.03;5064141;28;20028;-64
2023/12/26 10:12:05;;;;;;;0.70;0.70;;;;;;;4.44;89.95;98526.22;5064011;28;20021;-65
2023/12/26 10:14:31;;;;;;;0.52;0.52;;;;;;;4.37;90.43;98524.63;5065402;28;20032;-64
2023/12/26 10:16:57;;;;;;;0.52;0.52;;;;;;;4.42;89.38;98534.84;5067431;28;20059;-65
2023/12/26 10:19:23;;;;;;;1.27;0.70;;;;;;;4.56;91.23;98538.06;5067591;28;20032;-65
2023/12/26 10:21:52;;;;;;;1.73;0.80;;;;;;;4.81;90.76;98535.13;5067634;28;20075;-66
2023/12/26 10:24:18;;;;;;;0.50;0.50;;;;;;;5.10;91.22;98539.84;5067503;28;20025;-66
2023/12/26 10:26:44;;;;;;;0.60;0.60;;;;;;;5.11;89.33;98547.56;5067516;28;20029;-65
2023/12/26 10:29:16;;;;;;;0.40;0.40;;;;;;;5.00;89.36;98559.72;5049150;28;20052;-64
2023/12/26 10:31:42;;;;;;;0.40;0.40;;;;;;;4.80;88.26;98542.88;5048915;28;20078;-65
2023/12/26 10:34:20;;;;;;;3.92;1.08;;;;;;;4.80;88.19;98563.44;5049490;28;20016;-66
2023/12/26 10:36:48;;;;;;;0.50;0.50;;;;;;;4.77;88.00;98548.91;5049126;28;20025;-66
2023/12/26 10:39:13;;;;;;;0.65;0.47;;;;;;;4.90;87.83;98559.88;5067310;28;20025;-67
2023/12/26 10:41:47;;;;;;;0.50;0.50;;;;;;;4.98;88.91;98556.31;5067225;28;20035;-65
2023/12/26 10:44:14;;;;;;;7.22;1.05;;;;;;;4.98;89.52;98539.19;5067125;28;20465;-66
2023/12/26 10:46:41;;;;;;;1.13;1.02;;;;;;;5.01;89.03;98556.28;5067050;28;20032;-66
2023/12/26 10:49:10;;;;;;;0.50;0.50;;;;;;;4.98;89.39;98553.75;5067393;28;20149;-65
2023/12/26 10:51:41;;;;;;;0.88;0.88;;;;;;;5.14;90.68;98560.34;5067087;28;20040;-67
2023/12/26 10:54:06;;;;;;;1.55;0.60;;;;;;;5.41;90.36;98565.06;5067274;28;20524;-67
2023/12/26 10:56:32;;;;;;;0.50;0.50;;;;;;;5.59;91.21;98561.34;5048868;28;20029;-66
2023/12/26 10:58:58;;;;;;;0.40;0.40;;;;;;;5.63;89.15;98562.09;5067086;28;20096;-66
2023/12/26 13:53:40;;;;;;;0.50;0.50;;;;;;;3.23;87.27;98728.47;5068376;28;20082;-67
2023/12/26 13:56:42;;;;;;;0.82;0.80;;;;;;;3.14;85.74;98725.94;5068322;28;20017;-68
2023/12/26 13:59:45;;;;;;;0.40;0.40;;;;;;;3.13;85.49;98724.25;5068065;28;20029;-67
2023/12/26 14:02:48;;;;;;;1.08;0.65;;;;;;;3.11;85.56;98726.84;5049978;28;20525;-67
2023/12/26 14:05:53;;;;;;;0.40;0.40;;;;;;;3.10;85.25;98735.38;5068210;28;20036;-67
2023/12/26 14:08:56;;;;;;;0.85;0.60;;;;;;;3.16;85.94;98742.19;5068123;28;20084;-65
2023/12/26 14:11:59;;;;;;;0.40;0.40;;;;;;;3.12;87.00;98746.47;5067992;28;20063;-67
2023/12/26 14:15:02;;;;;;;0.50;0.50;;;;;;;3.09;86.20;98743.94;5068195;28;20041;-68
2023/12/26 14:18:08;;;;;;;0.88;0.88;;;;;;;3.10;86.78;98741.34;5067806;28;20009;-67
2023/12/26 14:21:10;;;;;;;0.70;0.70;;;;;;;3.05;86.83;98750.78;5067798;28;20033;-67
2023/12/26 14:24:13;;;;;;;0.50;0.50;;;;;;;3.03;86.64;98746.53;5067816;28;20021;-66
2023/12/26 14:27:16;;;;;;;6.07;1.02;;;;;;;3.05;86.65;98745.66;5049620;28;20029;-67
2023/12/26 14:30:19;;;;;;;0.95;0.95;;;;;;;3.09;87.21;98749.06;5067516;28;20045;-68
2023/12/26 14:33:22;;;;;;;0.63;0.63;;;;;;;3.05;87.03;98757.63;5067547;28;20025;-66
2023/12/26 14:36:25;;;;;;;0.45;0.45;;;;;;;2.99;86.32;98770.47;5067404;28;20412;-67